sensor_id;sensor_type;location;lat;lon;timestamp;P1;durP1;ratioP1;P2;durP2;ratioP2
10052;SDS011;52418;53.134;8.236;2022-09-09T00:00:52;1.10;;;1.10;;
10052;SDS011;52418;53.134;8.236;2022-09-09T00:03:31;1.00;;;1.00;;
10052;SDS011;52418;53.134;8.236;2022-09-09T00:06:07;1.03;;;1.03;;
10052;SDS011;52418;53.134;8.236;2022-09-09T00:08:38;1.00;;;1.00;;
10052;SDS011;52418;53.134;8.236;2022-09-09T00:11:06;1.00;;;1.00;;
10052;SDS011;52418;53.134;8.236;2022-09-09T00:13:42;1.00;;;1.00;;
10052;SDS011;52418;53.134;8.236;2022-09-09T00:16:21;1.00;;;1.00;;
10052;SDS011;52418;53.134;8.236;2022-09-09T00:21:37;1.00;;;1.00;;
10052;SDS011;52418;53.134;8.236;2022-09-09T00:24:08;1.10;;;1.10;;
10052;SDS011;52418;53.134;8.236;2022-09-09T00:26:39;1.10;;;1.10;;
10052;SDS011;52418;53.134;8.236;2022-09-09T00:32:12;1.00;;;1.00;;
10052;SDS011;52418;53.134;8.236;2022-09-09T00:34:46;1.00;;;1.00;;
10052;SDS011;52418;53.134;8.236;2022-09-09T00:37:11;1.00;;;1.00;;
10052;SDS011;52418;53.134;8.236;2022-09-09T00:39:37;1.00;;;1.00;;
10052;SDS011;52418;53.134;8.236;2022-09-09T00:42:12;1.00;;;1.00;;
10052;SDS011;52418;53.134;8.236;2022-09-09T00:44:38;1.00;;;1.00;;
10052;SDS011;52418;53.134;8.236;2022-09-09T00:49:56;1.00;;;1.00;;
10052;SDS011;52418;53.134;8.236;2022-09-09T00:55:03;1.00;;;1.00;;
10052;SDS011;52418;53.134;8.236;2022-09-09T00:57:33;1.10;;;1.10;;
10052;SDS011;52418;53.134;8.236;2022-09-09T01:02:55;1.03;;;1.03;;
10052;SDS011;52418;53.134;8.236;2022-09-09T01:05:27;1.00;;;1.00;;
10052;SDS011;52418;53.134;8.236;2022-09-09T01:07:55;1.00;;;1.00;;
10052;SDS011;52418;53.134;8.236;2022-09-09T01:10:30;1.00;;;1.00;;
10052;SDS011;52418;53.134;8.236;2022-09-09T01:12:56;1.00;;;1.00;;
10052;SDS011;52418;53.134;8.236;2022-09-09T01:15:25;0.90;;;0.90;;
10052;SDS011;52418;53.134;8.236;2022-09-09T01:17:55;1.00;;;1.00;;
10052;SDS011;52418;53.134;8.236;2022-09-09T01:20:24;1.00;;;1.00;;
10052;SDS011;52418;53.134;8.236;2022-09-09T01:23:04;1.00;;;1.00;;
10052;SDS011;52418;53.134;8.236;2022-09-09T01:28:16;1.00;;;1.00;;
10052;SDS011;52418;53.134;8.236;2022-09-09T01:30:43;1.10;;;1.10;;
10052;SDS011;52418;53.134;8.236;2022-09-09T01:33:10;1.10;;;1.10;;
10052;SDS011;52418;53.134;8.236;2022-09-09T01:35:53;1.10;;;1.10;;
10052;SDS011;52418;53.134;8.236;2022-09-09T01:38:20;1.10;;;1.10;;
10052;SDS011;52418;53.134;8.236;2022-09-09T01:40:46;1.10;;;1.10;;
10052;SDS011;52418;53.134;8.236;2022-09-09T01:43:11;1.00;;;1.00;;
10052;SDS011;52418;53.134;8.236;2022-09-09T01:45:36;1.00;;;1.00;;
10052;SDS011;52418;53.134;8.236;2022-09-09T01:48:02;1.10;;;1.10;;
10052;SDS011;52418;53.134;8.236;2022-09-09T01:50:27;1.00;;;1.00;;
10052;SDS011;52418;53.134;8.236;2022-09-09T01:52:54;1.00;;;1.00;;
10052;SDS011;52418;53.134;8.236;2022-09-09T01:55:23;1.03;;;1.03;;
10052;SDS011;52418;53.134;8.236;2022-09-09T01:57:55;1.07;;;1.07;;
10052;SDS011;52418;53.134;8.236;2022-09-09T02:00:21;1.10;;;1.10;;
10052;SDS011;52418;53.134;8.236;2022-09-09T02:05:22;1.00;;;1.00;;
10052;SDS011;52418;53.134;8.236;2022-09-09T02:07:50;1.00;;;1.00;;
10052;SDS011;52418;53.134;8.236;2022-09-09T02:10:21;1.00;;;1.00;;
10052;SDS011;52418;53.134;8.236;2022-09-09T02:12:56;1.13;;;1.13;;
10052;SDS011;52418;53.134;8.236;2022-09-09T02:15:30;1.10;;;1.10;;
10052;SDS011;52418;53.134;8.236;2022-09-09T02:17:58;1.00;;;1.00;;
10052;SDS011;52418;53.134;8.236;2022-09-09T02:20:23;1.00;;;1.00;;
10052;SDS011;52418;53.134;8.236;2022-09-09T02:22:50;1.10;;;1.10;;
10052;SDS011;52418;53.134;8.236;2022-09-09T02:25:17;1.10;;;1.10;;
10052;SDS011;52418;53.134;8.236;2022-09-09T02:27:44;1.10;;;1.10;;
10052;SDS011;52418;53.134;8.236;2022-09-09T02:30:10;1.10;;;1.10;;
10052;SDS011;52418;53.134;8.236;2022-09-09T02:32:36;0.90;;;0.90;;
10052;SDS011;52418;53.134;8.236;2022-09-09T02:35:05;1.10;;;1.10;;
10052;SDS011;52418;53.134;8.236;2022-09-09T02:37:32;1.00;;;1.00;;
10052;SDS011;52418;53.134;8.236;2022-09-09T02:40:00;1.00;;;1.00;;
10052;SDS011;52418;53.134;8.236;2022-09-09T02:42:25;1.00;;;1.00;;
10052;SDS011;52418;53.134;8.236;2022-09-09T02:44:50;1.00;;;1.00;;
10052;SDS011;52418;53.134;8.236;2022-09-09T02:52:26;0.97;;;0.97;;
10052;SDS011;52418;53.134;8.236;2022-09-09T02:54:53;1.10;;;1.10;;
10052;SDS011;52418;53.134;8.236;2022-09-09T02:57:23;1.00;;;1.00;;
10052;SDS011;52418;53.134;8.236;2022-09-09T02:59:50;1.00;;;1.00;;
10052;SDS011;52418;53.134;8.236;2022-09-09T03:02:16;1.03;;;1.03;;
10052;SDS011;52418;53.134;8.236;2022-09-09T03:04:43;1.10;;;1.10;;
10052;SDS011;52418;53.134;8.236;2022-09-09T03:07:09;1.10;;;1.10;;
10052;SDS011;52418;53.134;8.236;2022-09-09T03:09:34;1.03;;;1.03;;
10052;SDS011;52418;53.134;8.236;2022-09-09T03:12:00;1.10;;;1.10;;
10052;SDS011;52418;53.134;8.236;2022-09-09T03:14:25;1.00;;;1.00;;
10052;SDS011;52418;53.134;8.236;2022-09-09T03:16:51;1.00;;;1.00;;
10052;SDS011;52418;53.134;8.236;2022-09-09T03:19:16;1.00;;;1.00;;
10052;SDS011;52418;53.134;8.236;2022-09-09T03:21:41;1.00;;;1.00;;
10052;SDS011;52418;53.134;8.236;2022-09-09T03:24:06;0.93;;;0.93;;
10052;SDS011;52418;53.134;8.236;2022-09-09T03:26:32;0.93;;;0.93;;
10052;SDS011;52418;53.134;8.236;2022-09-09T03:32:00;1.00;;;1.00;;
10052;SDS011;52418;53.134;8.236;2022-09-09T03:34:25;0.90;;;0.90;;
10052;SDS011;52418;53.134;8.236;2022-09-09T03:36:50;1.07;;;1.07;;
10052;SDS011;52418;53.134;8.236;2022-09-09T03:39:15;0.90;;;0.90;;
10052;SDS011;52418;53.134;8.236;2022-09-09T03:41:40;1.00;;;1.00;;
10052;SDS011;52418;53.134;8.236;2022-09-09T03:44:05;1.00;;;1.00;;
10052;SDS011;52418;53.134;8.236;2022-09-09T03:46:31;1.00;;;1.00;;
10052;SDS011;52418;53.134;8.236;2022-09-09T03:48:56;1.00;;;1.00;;
10052;SDS011;52418;53.134;8.236;2022-09-09T03:51:22;1.00;;;1.00;;
10052;SDS011;52418;53.134;8.236;2022-09-09T03:53:47;1.00;;;1.00;;
10052;SDS011;52418;53.134;8.236;2022-09-09T03:56:12;1.00;;;1.00;;
10052;SDS011;52418;53.134;8.236;2022-09-09T03:58:37;0.90;;;0.90;;
10052;SDS011;52418;53.134;8.236;2022-09-09T04:01:04;0.90;;;0.90;;
10052;SDS011;52418;53.134;8.236;2022-09-09T04:03:30;1.00;;;1.00;;
10052;SDS011;52418;53.134;8.236;2022-09-09T04:05:56;1.00;;;1.00;;
10052;SDS011;52418;53.134;8.236;2022-09-09T04:08:21;0.90;;;0.90;;
10052;SDS011;52418;53.134;8.236;2022-09-09T04:10:48;0.90;;;0.90;;
10052;SDS011;52418;53.134;8.236;2022-09-09T04:13:13;0.90;;;0.90;;
10052;SDS011;52418;53.134;8.236;2022-09-09T04:15:41;0.97;;;0.97;;
10052;SDS011;52418;53.134;8.236;2022-09-09T04:18:06;1.00;;;1.00;;
10052;SDS011;52418;53.134;8.236;2022-09-09T04:20:31;1.07;;;1.07;;
10052;SDS011;52418;53.134;8.236;2022-09-09T04:22:56;1.00;;;1.00;;
10052;SDS011;52418;53.134;8.236;2022-09-09T04:25:21;0.97;;;0.97;;
10052;SDS011;52418;53.134;8.236;2022-09-09T04:27:46;1.00;;;1.00;;
10052;SDS011;52418;53.134;8.236;2022-09-09T04:30:12;1.10;;;1.10;;
10052;SDS011;52418;53.134;8.236;2022-09-09T04:32:37;1.00;;;1.00;;
10052;SDS011;52418;53.134;8.236;2022-09-09T04:35:03;0.87;;;0.87;;
10052;SDS011;52418;53.134;8.236;2022-09-09T04:37:28;1.00;;;1.00;;
10052;SDS011;52418;53.134;8.236;2022-09-09T04:42:28;0.90;;;0.90;;
10052;SDS011;52418;53.134;8.236;2022-09-09T04:44:53;0.90;;;0.90;;
10052;SDS011;52418;53.134;8.236;2022-09-09T04:47:19;0.97;;;0.97;;
10052;SDS011;52418;53.134;8.236;2022-09-09T04:49:44;1.00;;;1.00;;
10052;SDS011;52418;53.134;8.236;2022-09-09T04:52:09;0.95;;;0.95;;
10052;SDS011;52418;53.134;8.236;2022-09-09T04:54:34;1.00;;;1.00;;
10052;SDS011;52418;53.134;8.236;2022-09-09T04:57:17;1.00;;;1.00;;
10052;SDS011;52418;53.134;8.236;2022-09-09T04:59:42;1.10;;;1.10;;
10052;SDS011;52418;53.134;8.236;2022-09-09T05:02:07;0.90;;;0.90;;
10052;SDS011;52418;53.134;8.236;2022-09-09T05:04:33;1.00;;;1.00;;
10052;SDS011;52418;53.134;8.236;2022-09-09T05:06:58;0.90;;;0.90;;
10052;SDS011;52418;53.134;8.236;2022-09-09T05:09:23;0.93;;;0.93;;
10052;SDS011;52418;53.134;8.236;2022-09-09T05:11:48;0.90;;;0.90;;
10052;SDS011;52418;53.134;8.236;2022-09-09T05:14:14;0.90;;;0.90;;
10052;SDS011;52418;53.134;8.236;2022-09-09T05:16:39;0.90;;;0.90;;
10052;SDS011;52418;53.134;8.236;2022-09-09T05:19:04;0.90;;;0.90;;
10052;SDS011;52418;53.134;8.236;2022-09-09T05:21:30;1.00;;;1.00;;
10052;SDS011;52418;53.134;8.236;2022-09-09T05:23:55;0.97;;;0.97;;
10052;SDS011;52418;53.134;8.236;2022-09-09T05:26:21;0.90;;;0.90;;
10052;SDS011;52418;53.134;8.236;2022-09-09T05:28:47;0.80;;;0.80;;
10052;SDS011;52418;53.134;8.236;2022-09-09T05:31:12;1.00;;;1.00;;
10052;SDS011;52418;53.134;8.236;2022-09-09T05:33:38;0.90;;;0.90;;
10052;SDS011;52418;53.134;8.236;2022-09-09T05:36:16;1.00;;;1.00;;
10052;SDS011;52418;53.134;8.236;2022-09-09T05:38:42;0.90;;;0.90;;
10052;SDS011;52418;53.134;8.236;2022-09-09T05:41:08;0.90;;;0.90;;
10052;SDS011;52418;53.134;8.236;2022-09-09T05:43:34;0.90;;;0.90;;
10052;SDS011;52418;53.134;8.236;2022-09-09T05:48:33;1.00;;;1.00;;
10052;SDS011;52418;53.134;8.236;2022-09-09T05:51:00;1.00;;;1.00;;
10052;SDS011;52418;53.134;8.236;2022-09-09T05:53:25;0.90;;;0.90;;
10052;SDS011;52418;53.134;8.236;2022-09-09T05:55:57;1.00;;;1.00;;
10052;SDS011;52418;53.134;8.236;2022-09-09T05:58:23;1.00;;;1.00;;
10052;SDS011;52418;53.134;8.236;2022-09-09T06:00:49;1.00;;;1.00;;
10052;SDS011;52418;53.134;8.236;2022-09-09T06:03:14;1.00;;;1.00;;
10052;SDS011;52418;53.134;8.236;2022-09-09T06:05:39;0.93;;;0.93;;
10052;SDS011;52418;53.134;8.236;2022-09-09T06:08:04;0.90;;;0.90;;
10052;SDS011;52418;53.134;8.236;2022-09-09T06:10:29;0.90;;;0.90;;
10052;SDS011;52418;53.134;8.236;2022-09-09T06:13:00;1.00;;;1.00;;
10052;SDS011;52418;53.134;8.236;2022-09-09T06:15:25;0.90;;;0.90;;
10052;SDS011;52418;53.134;8.236;2022-09-09T06:17:55;0.90;;;0.90;;
10052;SDS011;52418;53.134;8.236;2022-09-09T06:20:20;0.90;;;0.90;;
10052;SDS011;52418;53.134;8.236;2022-09-09T06:22:46;0.90;;;0.90;;
10052;SDS011;52418;53.134;8.236;2022-09-09T06:25:13;0.90;;;0.90;;
10052;SDS011;52418;53.134;8.236;2022-09-09T06:27:39;1.00;;;1.00;;
10052;SDS011;52418;53.134;8.236;2022-09-09T06:30:04;1.00;;;1.00;;
10052;SDS011;52418;53.134;8.236;2022-09-09T06:32:29;1.00;;;1.00;;
10052;SDS011;52418;53.134;8.236;2022-09-09T06:34:54;1.00;;;1.00;;
10052;SDS011;52418;53.134;8.236;2022-09-09T06:37:19;0.90;;;0.90;;
10052;SDS011;52418;53.134;8.236;2022-09-09T06:39:45;0.90;;;0.90;;
10052;SDS011;52418;53.134;8.236;2022-09-09T06:42:10;1.00;;;1.00;;
10052;SDS011;52418;53.134;8.236;2022-09-09T06:44:35;1.00;;;1.00;;
10052;SDS011;52418;53.134;8.236;2022-09-09T06:47:01;0.90;;;0.90;;
10052;SDS011;52418;53.134;8.236;2022-09-09T06:49:26;0.90;;;0.90;;
10052;SDS011;52418;53.134;8.236;2022-09-09T06:51:51;0.90;;;0.90;;
10052;SDS011;52418;53.134;8.236;2022-09-09T06:54:17;1.00;;;1.00;;
10052;SDS011;52418;53.134;8.236;2022-09-09T06:56:42;0.90;;;0.90;;
10052;SDS011;52418;53.134;8.236;2022-09-09T06:59:08;1.00;;;1.00;;
10052;SDS011;52418;53.134;8.236;2022-09-09T07:01:41;1.00;;;1.00;;
10052;SDS011;52418;53.134;8.236;2022-09-09T07:04:07;0.90;;;0.90;;
10052;SDS011;52418;53.134;8.236;2022-09-09T07:06:34;0.90;;;0.90;;
10052;SDS011;52418;53.134;8.236;2022-09-09T07:09:01;0.93;;;0.93;;
10052;SDS011;52418;53.134;8.236;2022-09-09T07:11:27;0.93;;;0.93;;
10052;SDS011;52418;53.134;8.236;2022-09-09T07:13:53;1.10;;;1.10;;
10052;SDS011;52418;53.134;8.236;2022-09-09T07:16:19;1.00;;;1.00;;
10052;SDS011;52418;53.134;8.236;2022-09-09T07:18:45;1.00;;;1.00;;
10052;SDS011;52418;53.134;8.236;2022-09-09T07:21:11;0.90;;;0.90;;
10052;SDS011;52418;53.134;8.236;2022-09-09T07:23:37;1.07;;;1.07;;
10052;SDS011;52418;53.134;8.236;2022-09-09T07:26:06;1.00;;;1.00;;
10052;SDS011;52418;53.134;8.236;2022-09-09T07:28:32;1.00;;;1.00;;
10052;SDS011;52418;53.134;8.236;2022-09-09T07:30:58;1.10;;;1.10;;
10052;SDS011;52418;53.134;8.236;2022-09-09T07:33:24;1.00;;;1.00;;
10052;SDS011;52418;53.134;8.236;2022-09-09T07:35:49;1.00;;;1.00;;
10052;SDS011;52418;53.134;8.236;2022-09-09T07:38:14;1.03;;;1.03;;
10052;SDS011;52418;53.134;8.236;2022-09-09T07:40:40;1.00;;;1.00;;
10052;SDS011;52418;53.134;8.236;2022-09-09T07:43:05;1.00;;;1.00;;
10052;SDS011;52418;53.134;8.236;2022-09-09T07:45:30;0.93;;;0.93;;
10052;SDS011;52418;53.134;8.236;2022-09-09T07:47:57;0.90;;;0.90;;
10052;SDS011;52418;53.134;8.236;2022-09-09T07:50:23;1.00;;;1.00;;
10052;SDS011;52418;53.134;8.236;2022-09-09T07:52:48;1.00;;;1.00;;
10052;SDS011;52418;53.134;8.236;2022-09-09T07:55:14;0.90;;;0.90;;
10052;SDS011;52418;53.134;8.236;2022-09-09T07:57:39;0.90;;;0.90;;
10052;SDS011;52418;53.134;8.236;2022-09-09T08:00:05;1.00;;;1.00;;
10052;SDS011;52418;53.134;8.236;2022-09-09T08:02:30;1.00;;;1.00;;
10052;SDS011;52418;53.134;8.236;2022-09-09T08:04:55;0.90;;;0.90;;
10052;SDS011;52418;53.134;8.236;2022-09-09T08:07:21;1.00;;;1.00;;
10052;SDS011;52418;53.134;8.236;2022-09-09T08:09:47;0.90;;;0.90;;
10052;SDS011;52418;53.134;8.236;2022-09-09T08:12:12;1.00;;;1.00;;
10052;SDS011;52418;53.134;8.236;2022-09-09T08:14:38;1.00;;;1.00;;
10052;SDS011;52418;53.134;8.236;2022-09-09T08:17:03;1.00;;;1.00;;
10052;SDS011;52418;53.134;8.236;2022-09-09T08:19:28;1.00;;;1.00;;
10052;SDS011;52418;53.134;8.236;2022-09-09T08:21:59;1.00;;;1.00;;
10052;SDS011;52418;53.134;8.236;2022-09-09T08:24:24;1.10;;;1.10;;
10052;SDS011;52418;53.134;8.236;2022-09-09T08:26:49;1.00;;;1.00;;
10052;SDS011;52418;53.134;8.236;2022-09-09T08:29:14;1.10;;;1.10;;
10052;SDS011;52418;53.134;8.236;2022-09-09T08:31:41;1.00;;;1.00;;
10052;SDS011;52418;53.134;8.236;2022-09-09T08:34:07;1.00;;;1.00;;
10052;SDS011;52418;53.134;8.236;2022-09-09T08:36:35;1.00;;;1.00;;
10052;SDS011;52418;53.134;8.236;2022-09-09T08:39:01;1.10;;;1.10;;
10052;SDS011;52418;53.134;8.236;2022-09-09T08:44:02;1.00;;;1.00;;
10052;SDS011;52418;53.134;8.236;2022-09-09T08:46:36;1.00;;;1.00;;
10052;SDS011;52418;53.134;8.236;2022-09-09T08:49:04;1.00;;;1.00;;
10052;SDS011;52418;53.134;8.236;2022-09-09T08:51:31;1.00;;;1.00;;
10052;SDS011;52418;53.134;8.236;2022-09-09T08:53:58;1.00;;;1.00;;
10052;SDS011;52418;53.134;8.236;2022-09-09T08:56:25;1.00;;;1.00;;
10052;SDS011;52418;53.134;8.236;2022-09-09T08:58:52;1.10;;;1.10;;
10052;SDS011;52418;53.134;8.236;2022-09-09T09:06:49;1.10;;;1.10;;
10052;SDS011;52418;53.134;8.236;2022-09-09T09:11:59;1.10;;;1.10;;
10052;SDS011;52418;53.134;8.236;2022-09-09T09:14:27;1.10;;;1.10;;
10052;SDS011;52418;53.134;8.236;2022-09-09T09:17:04;1.17;;;1.17;;
10052;SDS011;52418;53.134;8.236;2022-09-09T09:19:31;1.20;;;1.20;;
10052;SDS011;52418;53.134;8.236;2022-09-09T09:22:10;1.20;;;1.20;;
10052;SDS011;52418;53.134;8.236;2022-09-09T09:24:53;1.13;;;1.13;;
10052;SDS011;52418;53.134;8.236;2022-09-09T09:27:32;1.02;;;1.02;;
10052;SDS011;52418;53.134;8.236;2022-09-09T09:29:59;1.10;;;1.10;;
10052;SDS011;52418;53.134;8.236;2022-09-09T09:32:25;1.13;;;1.13;;
10052;SDS011;52418;53.134;8.236;2022-09-09T09:34:51;1.20;;;1.20;;
10052;SDS011;52418;53.134;8.236;2022-09-09T09:37:22;1.10;;;1.10;;
10052;SDS011;52418;53.134;8.236;2022-09-09T09:39:48;1.00;;;1.00;;
10052;SDS011;52418;53.134;8.236;2022-09-09T09:42:16;1.10;;;1.10;;
10052;SDS011;52418;53.134;8.236;2022-09-09T09:44:42;1.15;;;1.15;;
10052;SDS011;52418;53.134;8.236;2022-09-09T09:47:15;1.10;;;1.10;;
10052;SDS011;52418;53.134;8.236;2022-09-09T09:52:35;1.10;;;1.10;;
10052;SDS011;52418;53.134;8.236;2022-09-09T09:55:03;1.10;;;1.10;;
10052;SDS011;52418;53.134;8.236;2022-09-09T09:57:29;1.10;;;1.10;;
10052;SDS011;52418;53.134;8.236;2022-09-09T10:02:40;1.10;;;1.10;;
10052;SDS011;52418;53.134;8.236;2022-09-09T10:05:21;1.20;;;1.20;;
10052;SDS011;52418;53.134;8.236;2022-09-09T10:07:46;1.30;;;1.30;;
10052;SDS011;52418;53.134;8.236;2022-09-09T10:10:19;1.20;;;1.20;;
10052;SDS011;52418;53.134;8.236;2022-09-09T10:12:55;1.20;;;1.20;;
10052;SDS011;52418;53.134;8.236;2022-09-09T10:17:54;1.20;;;1.20;;
10052;SDS011;52418;53.134;8.236;2022-09-09T10:23:46;1.20;;;1.20;;
10052;SDS011;52418;53.134;8.236;2022-09-09T10:28:58;1.30;;;1.30;;
10052;SDS011;52418;53.134;8.236;2022-09-09T10:31:17;1.30;;;1.30;;
10052;SDS011;52418;53.134;8.236;2022-09-09T10:33:48;1.30;;;1.30;;
10052;SDS011;52418;53.134;8.236;2022-09-09T10:38:47;1.15;;;1.15;;
10052;SDS011;52418;53.134;8.236;2022-09-09T10:41:19;1.20;;;1.20;;
10052;SDS011;52418;53.134;8.236;2022-09-09T10:44:01;1.20;;;1.20;;
10052;SDS011;52418;53.134;8.236;2022-09-09T10:57:12;1.20;;;1.20;;
10052;SDS011;52418;53.134;8.236;2022-09-09T10:59:43;1.20;;;1.20;;
10052;SDS011;52418;53.134;8.236;2022-09-09T11:02:19;1.20;;;1.20;;
10052;SDS011;52418;53.134;8.236;2022-09-09T11:04:53;1.10;;;1.10;;
10052;SDS011;52418;53.134;8.236;2022-09-09T11:10:06;1.20;;;1.20;;
10052;SDS011;52418;53.134;8.236;2022-09-09T11:12:32;1.48;;;1.40;;
10052;SDS011;52418;53.134;8.236;2022-09-09T11:15:01;1.20;;;1.20;;
10052;SDS011;52418;53.134;8.236;2022-09-09T11:17:36;1.20;;;1.20;;
10052;SDS011;52418;53.134;8.236;2022-09-09T11:20:05;1.20;;;1.20;;
10052;SDS011;52418;53.134;8.236;2022-09-09T11:22:37;1.30;;;1.30;;
10052;SDS011;52418;53.134;8.236;2022-09-09T11:27:31;1.20;;;1.20;;
10052;SDS011;52418;53.134;8.236;2022-09-09T11:32:30;1.20;;;1.20;;
10052;SDS011;52418;53.134;8.236;2022-09-09T11:35:09;1.10;;;1.10;;
10052;SDS011;52418;53.134;8.236;2022-09-09T11:37:44;1.20;;;1.20;;
10052;SDS011;52418;53.134;8.236;2022-09-09T11:40:19;1.20;;;1.20;;
10052;SDS011;52418;53.134;8.236;2022-09-09T11:42:45;1.08;;;1.08;;
10052;SDS011;52418;53.134;8.236;2022-09-09T11:45:19;1.20;;;1.20;;
10052;SDS011;52418;53.134;8.236;2022-09-09T11:47:55;1.20;;;1.20;;
10052;SDS011;52418;53.134;8.236;2022-09-09T11:52:47;1.10;;;1.10;;
10052;SDS011;52418;53.134;8.236;2022-09-09T11:55:24;1.20;;;1.20;;
10052;SDS011;52418;53.134;8.236;2022-09-09T11:57:57;1.10;;;1.10;;
10052;SDS011;52418;53.134;8.236;2022-09-09T12:00:55;1.20;;;1.20;;
10052;SDS011;52418;53.134;8.236;2022-09-09T12:05:59;1.20;;;1.20;;
10052;SDS011;52418;53.134;8.236;2022-09-09T12:08:28;1.20;;;1.20;;
10052;SDS011;52418;53.134;8.236;2022-09-09T12:10:55;1.20;;;1.20;;
10052;SDS011;52418;53.134;8.236;2022-09-09T12:13:22;1.20;;;1.20;;
10052;SDS011;52418;53.134;8.236;2022-09-09T12:15:49;1.15;;;1.15;;
10052;SDS011;52418;53.134;8.236;2022-09-09T12:18:15;1.10;;;1.10;;
10052;SDS011;52418;53.134;8.236;2022-09-09T12:21:25;1.10;;;1.10;;
10052;SDS011;52418;53.134;8.236;2022-09-09T12:23:40;1.13;;;1.13;;
10052;SDS011;52418;53.134;8.236;2022-09-09T12:28:56;1.30;;;1.30;;
10052;SDS011;52418;53.134;8.236;2022-09-09T12:31:28;1.20;;;1.20;;
10052;SDS011;52418;53.134;8.236;2022-09-09T12:36:44;1.20;;;1.20;;
10052;SDS011;52418;53.134;8.236;2022-09-09T12:39:16;1.20;;;1.20;;
10052;SDS011;52418;53.134;8.236;2022-09-09T12:41:50;1.30;;;1.30;;
10052;SDS011;52418;53.134;8.236;2022-09-09T12:44:16;1.10;;;1.10;;
10052;SDS011;52418;53.134;8.236;2022-09-09T12:46:42;1.20;;;1.20;;
10052;SDS011;52418;53.134;8.236;2022-09-09T12:49:28;1.20;;;1.20;;
10052;SDS011;52418;53.134;8.236;2022-09-09T12:51:55;1.10;;;1.10;;
10052;SDS011;52418;53.134;8.236;2022-09-09T12:54:22;1.20;;;1.20;;
10052;SDS011;52418;53.134;8.236;2022-09-09T12:56:48;1.20;;;1.20;;
10052;SDS011;52418;53.134;8.236;2022-09-09T12:59:26;1.20;;;1.20;;
10052;SDS011;52418;53.134;8.236;2022-09-09T13:01:59;1.00;;;1.00;;
10052;SDS011;52418;53.134;8.236;2022-09-09T13:04:24;1.13;;;1.13;;
10052;SDS011;52418;53.134;8.236;2022-09-09T13:06:51;1.00;;;1.00;;
10052;SDS011;52418;53.134;8.236;2022-09-09T13:09:17;1.00;;;1.00;;
10052;SDS011;52418;53.134;8.236;2022-09-09T13:11:43;1.10;;;1.10;;
10052;SDS011;52418;53.134;8.236;2022-09-09T13:14:18;1.02;;;1.02;;
10052;SDS011;52418;53.134;8.236;2022-09-09T13:16:54;1.10;;;1.10;;
10052;SDS011;52418;53.134;8.236;2022-09-09T13:19:19;1.10;;;1.10;;
10052;SDS011;52418;53.134;8.236;2022-09-09T13:21:46;1.10;;;1.10;;
10052;SDS011;52418;53.134;8.236;2022-09-09T13:24:24;1.10;;;1.10;;
10052;SDS011;52418;53.134;8.236;2022-09-09T13:26:57;1.10;;;1.10;;
10052;SDS011;52418;53.134;8.236;2022-09-09T13:29:23;1.00;;;1.00;;
10052;SDS011;52418;53.134;8.236;2022-09-09T13:31:48;1.10;;;1.10;;
10052;SDS011;52418;53.134;8.236;2022-09-09T13:37:37;1.08;;;1.08;;
10052;SDS011;52418;53.134;8.236;2022-09-09T13:39:50;1.10;;;1.10;;
10052;SDS011;52418;53.134;8.236;2022-09-09T13:42:24;1.17;;;1.17;;
10052;SDS011;52418;53.134;8.236;2022-09-09T13:44:53;1.10;;;1.10;;
10052;SDS011;52418;53.134;8.236;2022-09-09T13:47:19;1.10;;;1.10;;
10052;SDS011;52418;53.134;8.236;2022-09-09T13:49:45;1.10;;;1.10;;
10052;SDS011;52418;53.134;8.236;2022-09-09T13:52:12;1.10;;;1.10;;
10052;SDS011;52418;53.134;8.236;2022-09-09T13:54:38;1.10;;;1.10;;
10052;SDS011;52418;53.134;8.236;2022-09-09T13:57:04;1.10;;;1.10;;
10052;SDS011;52418;53.134;8.236;2022-09-09T13:59:29;1.10;;;1.10;;
10052;SDS011;52418;53.134;8.236;2022-09-09T14:01:55;1.15;;;1.15;;
10052;SDS011;52418;53.134;8.236;2022-09-09T14:04:20;1.10;;;1.10;;
10052;SDS011;52418;53.134;8.236;2022-09-09T14:06:49;1.10;;;1.10;;
10052;SDS011;52418;53.134;8.236;2022-09-09T14:09:15;1.10;;;1.10;;
10052;SDS011;52418;53.134;8.236;2022-09-09T14:11:43;1.20;;;1.20;;
10052;SDS011;52418;53.134;8.236;2022-09-09T14:14:09;1.10;;;1.10;;
10052;SDS011;52418;53.134;8.236;2022-09-09T14:16:34;1.10;;;1.10;;
10052;SDS011;52418;53.134;8.236;2022-09-09T14:18:59;1.10;;;1.10;;
10052;SDS011;52418;53.134;8.236;2022-09-09T14:21:25;1.20;;;1.20;;
10052;SDS011;52418;53.134;8.236;2022-09-09T14:23:50;1.10;;;1.10;;
10052;SDS011;52418;53.134;8.236;2022-09-09T14:26:16;1.10;;;1.10;;
10052;SDS011;52418;53.134;8.236;2022-09-09T14:28:41;1.10;;;1.10;;
10052;SDS011;52418;53.134;8.236;2022-09-09T14:33:49;1.10;;;1.10;;
10052;SDS011;52418;53.134;8.236;2022-09-09T14:36:15;1.20;;;1.20;;
10052;SDS011;52418;53.134;8.236;2022-09-09T14:38:41;1.20;;;1.20;;
10052;SDS011;52418;53.134;8.236;2022-09-09T14:41:15;1.17;;;1.17;;
10052;SDS011;52418;53.134;8.236;2022-09-09T14:43:44;1.20;;;1.20;;
10052;SDS011;52418;53.134;8.236;2022-09-09T14:46:10;1.20;;;1.20;;
10052;SDS011;52418;53.134;8.236;2022-09-09T14:48:37;1.20;;;1.20;;
10052;SDS011;52418;53.134;8.236;2022-09-09T14:51:06;1.10;;;1.10;;
10052;SDS011;52418;53.134;8.236;2022-09-09T14:53:31;1.20;;;1.20;;
10052;SDS011;52418;53.134;8.236;2022-09-09T14:56:04;1.10;;;1.10;;
10052;SDS011;52418;53.134;8.236;2022-09-09T14:58:32;1.20;;;1.20;;
10052;SDS011;52418;53.134;8.236;2022-09-09T15:01:07;1.10;;;1.10;;
10052;SDS011;52418;53.134;8.236;2022-09-09T15:03:34;1.25;;;1.25;;
10052;SDS011;52418;53.134;8.236;2022-09-09T15:06:04;1.10;;;1.10;;
10052;SDS011;52418;53.134;8.236;2022-09-09T15:08:29;1.10;;;1.10;;
10052;SDS011;52418;53.134;8.236;2022-09-09T15:10:58;1.20;;;1.20;;
10052;SDS011;52418;53.134;8.236;2022-09-09T15:13:23;1.20;;;1.20;;
10052;SDS011;52418;53.134;8.236;2022-09-09T15:15:50;1.10;;;1.10;;
10052;SDS011;52418;53.134;8.236;2022-09-09T15:18:15;1.20;;;1.20;;
10052;SDS011;52418;53.134;8.236;2022-09-09T15:20:44;1.20;;;1.20;;
10052;SDS011;52418;53.134;8.236;2022-09-09T15:23:11;1.10;;;1.10;;
10052;SDS011;52418;53.134;8.236;2022-09-09T15:25:36;1.20;;;1.20;;
10052;SDS011;52418;53.134;8.236;2022-09-09T15:28:01;1.27;;;1.27;;
10052;SDS011;52418;53.134;8.236;2022-09-09T15:30:26;1.10;;;1.10;;
10052;SDS011;52418;53.134;8.236;2022-09-09T15:32:52;1.20;;;1.20;;
10052;SDS011;52418;53.134;8.236;2022-09-09T15:35:17;1.20;;;1.20;;
10052;SDS011;52418;53.134;8.236;2022-09-09T15:37:43;1.10;;;1.10;;
10052;SDS011;52418;53.134;8.236;2022-09-09T15:40:08;1.20;;;1.20;;
10052;SDS011;52418;53.134;8.236;2022-09-09T15:42:33;1.25;;;1.25;;
10052;SDS011;52418;53.134;8.236;2022-09-09T15:44:58;1.10;;;1.10;;
10052;SDS011;52418;53.134;8.236;2022-09-09T15:47:23;1.15;;;1.15;;
10052;SDS011;52418;53.134;8.236;2022-09-09T15:49:49;1.17;;;1.17;;
10052;SDS011;52418;53.134;8.236;2022-09-09T15:52:15;1.10;;;1.10;;
10052;SDS011;52418;53.134;8.236;2022-09-09T15:54:40;1.10;;;1.10;;
10052;SDS011;52418;53.134;8.236;2022-09-09T15:57:10;1.20;;;1.20;;
10052;SDS011;52418;53.134;8.236;2022-09-09T15:59:35;1.20;;;1.20;;
10052;SDS011;52418;53.134;8.236;2022-09-09T16:02:01;1.10;;;1.10;;
10052;SDS011;52418;53.134;8.236;2022-09-09T16:04:26;1.10;;;1.10;;
10052;SDS011;52418;53.134;8.236;2022-09-09T16:06:53;1.02;;;1.02;;
10052;SDS011;52418;53.134;8.236;2022-09-09T16:09:18;1.20;;;1.20;;
10052;SDS011;52418;53.134;8.236;2022-09-09T16:11:44;1.20;;;1.20;;
10052;SDS011;52418;53.134;8.236;2022-09-09T16:14:09;1.20;;;1.20;;
10052;SDS011;52418;53.134;8.236;2022-09-09T16:16:36;1.25;;;1.25;;
10052;SDS011;52418;53.134;8.236;2022-09-09T16:19:08;1.30;;;1.30;;
10052;SDS011;52418;53.134;8.236;2022-09-09T16:21:35;1.13;;;1.13;;
10052;SDS011;52418;53.134;8.236;2022-09-09T16:24:03;1.10;;;1.10;;
10052;SDS011;52418;53.134;8.236;2022-09-09T16:26:29;1.02;;;1.02;;